sensor_id;sensor_type;location;lat;lon;timestamp;P1;durP1;ratioP1;P2;durP2;ratioP2
9288;SDS011;4683;50.864;12.086;2023-09-07T00:00:58;7.10;;;6.47;;
9288;SDS011;4683;50.864;12.086;2023-09-07T00:03:41;7.60;;;6.90;;
9288;SDS011;4683;50.864;12.086;2023-09-07T00:06:14;7.70;;;6.73;;
9288;SDS011;4683;50.864;12.086;2023-09-07T00:08:48;8.40;;;7.00;;
9288;SDS011;4683;50.864;12.086;2023-09-07T00:11:26;6.63;;;6.03;;
9288;SDS011;4683;50.864;12.086;2023-09-07T00:14:01;7.50;;;6.90;;
9288;SDS011;4683;50.864;12.086;2023-09-07T00:16:39;8.00;;;6.97;;
9288;SDS011;4683;50.864;12.086;2023-09-07T00:19:27;7.20;;;6.50;;
9288;SDS011;4683;50.864;12.086;2023-09-07T00:22:19;7.87;;;7.17;;
9288;SDS011;4683;50.864;12.086;2023-09-07T00:24:48;7.93;;;6.90;;
9288;SDS011;4683;50.864;12.086;2023-09-07T00:27:22;8.43;;;6.80;;
9288;SDS011;4683;50.864;12.086;2023-09-07T00:29:57;7.73;;;7.03;;
9288;SDS011;4683;50.864;12.086;2023-09-07T00:32:31;7.97;;;7.17;;
9288;SDS011;4683;50.864;12.086;2023-09-07T00:35:16;8.07;;;7.27;;
9288;SDS011;4683;50.864;12.086;2023-09-07T00:37:45;7.70;;;7.00;;
9288;SDS011;4683;50.864;12.086;2023-09-07T00:40:31;8.93;;;7.47;;
9288;SDS011;4683;50.864;12.086;2023-09-07T00:43:09;7.53;;;6.83;;
9288;SDS011;4683;50.864;12.086;2023-09-07T00:45:56;8.40;;;7.70;;
9288;SDS011;4683;50.864;12.086;2023-09-07T00:48:25;8.03;;;7.23;;
9288;SDS011;4683;50.864;12.086;2023-09-07T00:51:02;7.67;;;6.97;;
9288;SDS011;4683;50.864;12.086;2023-09-07T00:53:53;7.60;;;6.97;;
9288;SDS011;4683;50.864;12.086;2023-09-07T00:56:22;7.40;;;6.70;;
9288;SDS011;4683;50.864;12.086;2023-09-07T00:58:59;7.70;;;7.00;;
9288;SDS011;4683;50.864;12.086;2023-09-07T01:01:40;7.83;;;7.13;;
9288;SDS011;4683;50.864;12.086;2023-09-07T01:04:32;7.57;;;6.87;;
9288;SDS011;4683;50.864;12.086;2023-09-07T01:07:03;7.33;;;6.63;;
9288;SDS011;4683;50.864;12.086;2023-09-07T01:09:51;8.10;;;7.30;;
9288;SDS011;4683;50.864;12.086;2023-09-07T01:12:46;7.70;;;6.90;;
9288;SDS011;4683;50.864;12.086;2023-09-07T01:15:14;8.50;;;7.67;;
9288;SDS011;4683;50.864;12.086;2023-09-07T01:18:07;8.00;;;7.30;;
9288;SDS011;4683;50.864;12.086;2023-09-07T01:20:37;6.93;;;6.33;;
9288;SDS011;4683;50.864;12.086;2023-09-07T01:23:18;7.53;;;6.90;;
9288;SDS011;4683;50.864;12.086;2023-09-07T01:25:52;8.23;;;7.47;;
9288;SDS011;4683;50.864;12.086;2023-09-07T01:28:40;7.03;;;6.40;;
9288;SDS011;4683;50.864;12.086;2023-09-07T01:31:09;8.43;;;7.57;;
9288;SDS011;4683;50.864;12.086;2023-09-07T01:33:43;8.10;;;7.33;;
9288;SDS011;4683;50.864;12.086;2023-09-07T01:36:29;8.30;;;7.50;;
9288;SDS011;4683;50.864;12.086;2023-09-07T01:39:00;8.27;;;7.57;;
9288;SDS011;4683;50.864;12.086;2023-09-07T01:41:44;9.20;;;8.30;;
9288;SDS011;4683;50.864;12.086;2023-09-07T01:44:18;8.10;;;7.37;;
9288;SDS011;4683;50.864;12.086;2023-09-07T01:47:02;8.90;;;7.97;;
9288;SDS011;4683;50.864;12.086;2023-09-07T01:49:34;7.80;;;7.20;;
9288;SDS011;4683;50.864;12.086;2023-09-07T01:52:08;8.37;;;7.70;;
9288;SDS011;4683;50.864;12.086;2023-09-07T01:54:56;7.67;;;6.97;;
9288;SDS011;4683;50.864;12.086;2023-09-07T01:57:35;8.03;;;7.23;;
9288;SDS011;4683;50.864;12.086;2023-09-07T02:00:18;8.97;;;7.97;;
9288;SDS011;4683;50.864;12.086;2023-09-07T02:02:46;10.07;;;8.50;;
9288;SDS011;4683;50.864;12.086;2023-09-07T02:05:14;8.33;;;7.53;;
9288;SDS011;4683;50.864;12.086;2023-09-07T02:07:49;8.77;;;7.97;;
9288;SDS011;4683;50.864;12.086;2023-09-07T02:10:23;9.00;;;8.20;;
9288;SDS011;4683;50.864;12.086;2023-09-07T02:12:52;8.67;;;7.87;;
9288;SDS011;4683;50.864;12.086;2023-09-07T02:15:28;8.83;;;7.93;;
9288;SDS011;4683;50.864;12.086;2023-09-07T02:18:20;9.07;;;8.10;;
9288;SDS011;4683;50.864;12.086;2023-09-07T02:21:00;8.90;;;8.00;;
9288;SDS011;4683;50.864;12.086;2023-09-07T02:23:37;8.90;;;8.10;;
9288;SDS011;4683;50.864;12.086;2023-09-07T02:26:13;8.70;;;7.97;;
9288;SDS011;4683;50.864;12.086;2023-09-07T02:29:00;8.10;;;7.20;;
9288;SDS011;4683;50.864;12.086;2023-09-07T02:31:39;8.00;;;6.90;;
9288;SDS011;4683;50.864;12.086;2023-09-07T02:34:13;8.27;;;7.47;;
9288;SDS011;4683;50.864;12.086;2023-09-07T02:36:47;8.87;;;8.07;;
9288;SDS011;4683;50.864;12.086;2023-09-07T02:39:21;8.20;;;7.50;;
9288;SDS011;4683;50.864;12.086;2023-09-07T02:41:57;8.20;;;7.40;;
9288;SDS011;4683;50.864;12.086;2023-09-07T02:44:26;8.37;;;7.57;;
9288;SDS011;4683;50.864;12.086;2023-09-07T02:47:02;7.90;;;7.20;;
9288;SDS011;4683;50.864;12.086;2023-09-07T02:49:34;8.60;;;7.80;;
9288;SDS011;4683;50.864;12.086;2023-09-07T02:52:23;8.60;;;7.70;;
9288;SDS011;4683;50.864;12.086;2023-09-07T02:55:01;9.07;;;7.00;;
9288;SDS011;4683;50.864;12.086;2023-09-07T02:57:39;8.17;;;7.40;;
9288;SDS011;4683;50.864;12.086;2023-09-07T03:00:23;7.40;;;6.70;;
9288;SDS011;4683;50.864;12.086;2023-09-07T03:06:50;8.53;;;7.47;;
9288;SDS011;4683;50.864;12.086;2023-09-07T03:09:24;8.63;;;7.70;;
9288;SDS011;4683;50.864;12.086;2023-09-07T03:11:53;7.93;;;7.17;;
9288;SDS011;4683;50.864;12.086;2023-09-07T03:14:23;8.37;;;7.63;;
9288;SDS011;4683;50.864;12.086;2023-09-07T03:16:59;9.03;;;8.23;;
9288;SDS011;4683;50.864;12.086;2023-09-07T03:19:29;8.73;;;7.93;;
9288;SDS011;4683;50.864;12.086;2023-09-07T03:22:01;8.53;;;7.80;;
9288;SDS011;4683;50.864;12.086;2023-09-07T03:24:52;9.07;;;8.27;;
9288;SDS011;4683;50.864;12.086;2023-09-07T03:27:20;10.27;;;7.87;;
9288;SDS011;4683;50.864;12.086;2023-09-07T03:29:50;8.70;;;7.80;;
9288;SDS011;4683;50.864;12.086;2023-09-07T03:32:25;8.47;;;7.67;;
9288;SDS011;4683;50.864;12.086;2023-09-07T03:35:15;8.80;;;7.57;;
9288;SDS011;4683;50.864;12.086;2023-09-07T03:37:44;8.80;;;7.90;;
9288;SDS011;4683;50.864;12.086;2023-09-07T03:40:29;8.83;;;7.97;;
9288;SDS011;4683;50.864;12.086;2023-09-07T03:47:05;8.23;;;7.43;;
9288;SDS011;4683;50.864;12.086;2023-09-07T03:49:34;8.23;;;7.53;;
9288;SDS011;4683;50.864;12.086;2023-09-07T03:52:09;9.07;;;8.20;;
9288;SDS011;4683;50.864;12.086;2023-09-07T03:54:53;8.50;;;7.70;;
9288;SDS011;4683;50.864;12.086;2023-09-07T03:57:37;9.20;;;7.50;;
9288;SDS011;4683;50.864;12.086;2023-09-07T04:00:07;8.77;;;7.97;;
9288;SDS011;4683;50.864;12.086;2023-09-07T04:02:41;8.10;;;7.43;;
9288;SDS011;4683;50.864;12.086;2023-09-07T04:05:36;8.17;;;7.43;;
9288;SDS011;4683;50.864;12.086;2023-09-07T04:08:05;8.73;;;7.73;;
9288;SDS011;4683;50.864;12.086;2023-09-07T04:10:36;8.53;;;7.77;;
9288;SDS011;4683;50.864;12.086;2023-09-07T04:13:22;8.33;;;7.53;;
9288;SDS011;4683;50.864;12.086;2023-09-07T04:15:57;9.10;;;8.23;;
9288;SDS011;4683;50.864;12.086;2023-09-07T04:18:27;8.40;;;7.27;;
9288;SDS011;4683;50.864;12.086;2023-09-07T04:21:21;8.37;;;7.37;;
9288;SDS011;4683;50.864;12.086;2023-09-07T04:23:49;8.70;;;7.80;;
9288;SDS011;4683;50.864;12.086;2023-09-07T04:26:37;8.70;;;7.90;;
9288;SDS011;4683;50.864;12.086;2023-09-07T04:29:06;8.43;;;7.63;;
9288;SDS011;4683;50.864;12.086;2023-09-07T04:31:35;8.90;;;8.00;;
9288;SDS011;4683;50.864;12.086;2023-09-07T04:34:23;8.10;;;7.40;;
9288;SDS011;4683;50.864;12.086;2023-09-07T04:36:52;9.07;;;8.17;;
9288;SDS011;4683;50.864;12.086;2023-09-07T04:39:27;8.93;;;8.17;;
9288;SDS011;4683;50.864;12.086;2023-09-07T04:41:57;8.70;;;7.77;;
9288;SDS011;4683;50.864;12.086;2023-09-07T04:44:29;16.83;;;9.57;;
9288;SDS011;4683;50.864;12.086;2023-09-07T04:46:57;13.40;;;9.27;;
9288;SDS011;4683;50.864;12.086;2023-09-07T04:49:28;9.77;;;8.47;;
9288;SDS011;4683;50.864;12.086;2023-09-07T04:51:57;9.43;;;8.47;;
9288;SDS011;4683;50.864;12.086;2023-09-07T04:54:46;11.17;;;8.70;;
9288;SDS011;4683;50.864;12.086;2023-09-07T04:57:16;10.23;;;8.73;;
9288;SDS011;4683;50.864;12.086;2023-09-07T05:00:05;8.10;;;7.30;;
9288;SDS011;4683;50.864;12.086;2023-09-07T05:02:36;9.57;;;7.97;;
9288;SDS011;4683;50.864;12.086;2023-09-07T05:05:10;7.93;;;7.23;;
9288;SDS011;4683;50.864;12.086;2023-09-07T05:07:56;8.07;;;7.27;;
9288;SDS011;4683;50.864;12.086;2023-09-07T05:10:33;8.30;;;7.60;;
9288;SDS011;4683;50.864;12.086;2023-09-07T05:13:02;8.60;;;7.80;;
9288;SDS011;4683;50.864;12.086;2023-09-07T05:15:48;8.93;;;8.13;;
9288;SDS011;4683;50.864;12.086;2023-09-07T05:18:23;9.50;;;8.60;;
9288;SDS011;4683;50.864;12.086;2023-09-07T05:20:55;8.73;;;7.90;;
9288;SDS011;4683;50.864;12.086;2023-09-07T05:23:23;8.73;;;7.80;;
9288;SDS011;4683;50.864;12.086;2023-09-07T05:25:54;10.03;;;8.50;;
9288;SDS011;4683;50.864;12.086;2023-09-07T05:28:23;9.27;;;8.47;;
9288;SDS011;4683;50.864;12.086;2023-09-07T05:30:53;9.63;;;8.30;;
9288;SDS011;4683;50.864;12.086;2023-09-07T05:33:22;9.13;;;8.23;;
9288;SDS011;4683;50.864;12.086;2023-09-07T05:35:51;9.47;;;8.60;;
9288;SDS011;4683;50.864;12.086;2023-09-07T05:38:21;9.97;;;9.00;;
9288;SDS011;4683;50.864;12.086;2023-09-07T05:40:51;9.77;;;8.77;;
9288;SDS011;4683;50.864;12.086;2023-09-07T05:43:20;9.03;;;8.30;;
9288;SDS011;4683;50.864;12.086;2023-09-07T05:45:49;8.77;;;7.97;;
9288;SDS011;4683;50.864;12.086;2023-09-07T05:48:18;10.10;;;9.10;;
9288;SDS011;4683;50.864;12.086;2023-09-07T05:50:47;11.37;;;9.33;;
9288;SDS011;4683;50.864;12.086;2023-09-07T05:53:41;11.07;;;9.97;;
9288;SDS011;4683;50.864;12.086;2023-09-07T05:56:10;9.67;;;8.77;;
9288;SDS011;4683;50.864;12.086;2023-09-07T05:58:39;10.40;;;9.13;;
9288;SDS011;4683;50.864;12.086;2023-09-07T06:01:08;9.97;;;9.03;;
9288;SDS011;4683;50.864;12.086;2023-09-07T06:03:38;10.20;;;9.20;;
9288;SDS011;4683;50.864;12.086;2023-09-07T06:06:07;9.50;;;8.37;;
9288;SDS011;4683;50.864;12.086;2023-09-07T06:08:35;10.70;;;9.60;;
9288;SDS011;4683;50.864;12.086;2023-09-07T06:11:06;10.77;;;8.50;;
9288;SDS011;4683;50.864;12.086;2023-09-07T06:13:35;9.70;;;8.70;;
9288;SDS011;4683;50.864;12.086;2023-09-07T06:16:10;12.03;;;8.70;;
9288;SDS011;4683;50.864;12.086;2023-09-07T06:18:39;9.50;;;8.70;;
9288;SDS011;4683;50.864;12.086;2023-09-07T06:21:07;10.17;;;9.17;;
9288;SDS011;4683;50.864;12.086;2023-09-07T06:23:36;10.13;;;9.10;;
9288;SDS011;4683;50.864;12.086;2023-09-07T06:26:06;9.80;;;8.00;;
9288;SDS011;4683;50.864;12.086;2023-09-07T06:28:34;9.77;;;8.87;;
9288;SDS011;4683;50.864;12.086;2023-09-07T06:31:06;9.53;;;8.57;;
9288;SDS011;4683;50.864;12.086;2023-09-07T06:33:40;11.77;;;8.47;;
9288;SDS011;4683;50.864;12.086;2023-09-07T06:36:12;10.30;;;9.30;;
9288;SDS011;4683;50.864;12.086;2023-09-07T06:38:41;9.53;;;8.60;;
9288;SDS011;4683;50.864;12.086;2023-09-07T06:41:12;9.37;;;8.47;;
9288;SDS011;4683;50.864;12.086;2023-09-07T06:43:41;11.93;;;8.90;;
9288;SDS011;4683;50.864;12.086;2023-09-07T06:46:09;9.27;;;8.37;;
9288;SDS011;4683;50.864;12.086;2023-09-07T06:48:39;9.03;;;8.23;;
9288;SDS011;4683;50.864;12.086;2023-09-07T06:51:08;9.17;;;8.27;;
9288;SDS011;4683;50.864;12.086;2023-09-07T06:53:37;9.43;;;8.53;;
9288;SDS011;4683;50.864;12.086;2023-09-07T06:56:09;9.20;;;8.00;;
9288;SDS011;4683;50.864;12.086;2023-09-07T06:58:39;10.03;;;8.93;;
9288;SDS011;4683;50.864;12.086;2023-09-07T07:01:07;9.13;;;8.17;;
9288;SDS011;4683;50.864;12.086;2023-09-07T07:03:36;9.40;;;8.57;;
9288;SDS011;4683;50.864;12.086;2023-09-07T07:06:06;9.23;;;8.37;;
9288;SDS011;4683;50.864;12.086;2023-09-07T07:08:36;9.37;;;8.47;;
9288;SDS011;4683;50.864;12.086;2023-09-07T07:11:04;8.63;;;7.83;;
9288;SDS011;4683;50.864;12.086;2023-09-07T07:13:35;8.93;;;8.10;;
9288;SDS011;4683;50.864;12.086;2023-09-07T07:16:04;9.40;;;8.50;;
9288;SDS011;4683;50.864;12.086;2023-09-07T07:18:33;9.00;;;8.20;;
9288;SDS011;4683;50.864;12.086;2023-09-07T07:21:02;8.60;;;7.83;;
9288;SDS011;4683;50.864;12.086;2023-09-07T07:23:30;8.57;;;7.87;;
9288;SDS011;4683;50.864;12.086;2023-09-07T07:25:59;8.63;;;7.73;;
9288;SDS011;4683;50.864;12.086;2023-09-07T07:28:28;8.60;;;7.80;;
9288;SDS011;4683;50.864;12.086;2023-09-07T07:30:58;11.07;;;8.70;;
9288;SDS011;4683;50.864;12.086;2023-09-07T07:33:34;9.00;;;8.10;;
9288;SDS011;4683;50.864;12.086;2023-09-07T07:36:03;9.63;;;8.33;;
9288;SDS011;4683;50.864;12.086;2023-09-07T07:38:32;8.73;;;7.93;;
9288;SDS011;4683;50.864;12.086;2023-09-07T07:41:01;11.23;;;8.30;;
9288;SDS011;4683;50.864;12.086;2023-09-07T07:43:29;8.43;;;7.60;;
9288;SDS011;4683;50.864;12.086;2023-09-07T07:46:02;9.10;;;8.30;;
9288;SDS011;4683;50.864;12.086;2023-09-07T07:48:33;8.60;;;7.80;;
9288;SDS011;4683;50.864;12.086;2023-09-07T07:51:02;9.23;;;8.30;;
9288;SDS011;4683;50.864;12.086;2023-09-07T07:53:31;8.40;;;7.57;;
9288;SDS011;4683;50.864;12.086;2023-09-07T07:56:00;7.83;;;7.10;;
9288;SDS011;4683;50.864;12.086;2023-09-07T07:58:31;9.17;;;7.40;;
9288;SDS011;4683;50.864;12.086;2023-09-07T08:01:01;7.87;;;7.10;;
9288;SDS011;4683;50.864;12.086;2023-09-07T08:03:30;8.47;;;7.67;;
9288;SDS011;4683;50.864;12.086;2023-09-07T08:05:59;8.43;;;7.50;;
9288;SDS011;4683;50.864;12.086;2023-09-07T08:08:31;10.13;;;7.20;;
9288;SDS011;4683;50.864;12.086;2023-09-07T08:11:00;8.17;;;7.47;;
9288;SDS011;4683;50.864;12.086;2023-09-07T08:13:31;8.30;;;6.63;;
9288;SDS011;4683;50.864;12.086;2023-09-07T08:16:04;7.40;;;6.70;;
9288;SDS011;4683;50.864;12.086;2023-09-07T08:18:35;8.17;;;7.20;;
9288;SDS011;4683;50.864;12.086;2023-09-07T08:21:07;7.37;;;6.73;;
9288;SDS011;4683;50.864;12.086;2023-09-07T08:23:37;7.20;;;6.60;;
9288;SDS011;4683;50.864;12.086;2023-09-07T08:26:07;7.40;;;6.67;;
9288;SDS011;4683;50.864;12.086;2023-09-07T08:28:36;7.23;;;6.70;;
9288;SDS011;4683;50.864;12.086;2023-09-07T08:31:06;6.83;;;6.17;;
9288;SDS011;4683;50.864;12.086;2023-09-07T08:33:40;7.40;;;6.60;;
9288;SDS011;4683;50.864;12.086;2023-09-07T08:36:09;7.77;;;7.00;;
9288;SDS011;4683;50.864;12.086;2023-09-07T08:38:38;8.37;;;7.40;;
9288;SDS011;4683;50.864;12.086;2023-09-07T08:41:07;8.03;;;7.03;;
9288;SDS011;4683;50.864;12.086;2023-09-07T08:43:45;9.80;;;7.40;;
9288;SDS011;4683;50.864;12.086;2023-09-07T08:46:18;7.83;;;7.03;;
9288;SDS011;4683;50.864;12.086;2023-09-07T08:48:48;7.73;;;7.03;;
9288;SDS011;4683;50.864;12.086;2023-09-07T08:51:18;7.53;;;6.77;;
9288;SDS011;4683;50.864;12.086;2023-09-07T08:53:51;8.03;;;7.33;;
9288;SDS011;4683;50.864;12.086;2023-09-07T08:56:22;8.73;;;7.00;;
9288;SDS011;4683;50.864;12.086;2023-09-07T08:58:52;7.80;;;7.00;;
9288;SDS011;4683;50.864;12.086;2023-09-07T09:01:22;9.10;;;6.70;;
9288;SDS011;4683;50.864;12.086;2023-09-07T09:03:50;9.10;;;7.17;;
9288;SDS011;4683;50.864;12.086;2023-09-07T09:06:19;8.13;;;7.40;;
9288;SDS011;4683;50.864;12.086;2023-09-07T09:08:49;9.30;;;7.60;;
9288;SDS011;4683;50.864;12.086;2023-09-07T09:11:22;7.70;;;6.90;;
9288;SDS011;4683;50.864;12.086;2023-09-07T09:13:52;11.03;;;7.27;;
9288;SDS011;4683;50.864;12.086;2023-09-07T09:16:24;8.40;;;6.73;;
9288;SDS011;4683;50.864;12.086;2023-09-07T09:18:57;7.63;;;6.87;;
9288;SDS011;4683;50.864;12.086;2023-09-07T09:21:28;10.00;;;6.37;;
9288;SDS011;4683;50.864;12.086;2023-09-07T09:23:58;8.60;;;6.43;;
9288;SDS011;4683;50.864;12.086;2023-09-07T09:26:53;6.97;;;6.33;;
9288;SDS011;4683;50.864;12.086;2023-09-07T09:29:23;7.07;;;6.37;;
9288;SDS011;4683;50.864;12.086;2023-09-07T09:31:54;7.53;;;6.13;;
9288;SDS011;4683;50.864;12.086;2023-09-07T09:34:23;7.77;;;7.03;;
9288;SDS011;4683;50.864;12.086;2023-09-07T09:36:53;8.67;;;6.60;;
9288;SDS011;4683;50.864;12.086;2023-09-07T09:39:22;7.97;;;6.93;;
9288;SDS011;4683;50.864;12.086;2023-09-07T09:41:54;8.30;;;6.80;;
9288;SDS011;4683;50.864;12.086;2023-09-07T09:44:23;7.20;;;6.50;;
9288;SDS011;4683;50.864;12.086;2023-09-07T09:47:30;7.53;;;6.10;;
9288;SDS011;4683;50.864;12.086;2023-09-07T09:50:20;6.70;;;5.47;;
9288;SDS011;4683;50.864;12.086;2023-09-07T09:53:10;6.17;;;5.03;;
9288;SDS011;4683;50.864;12.086;2023-09-07T09:55:49;7.53;;;5.30;;
9288;SDS011;4683;50.864;12.086;2023-09-07T09:58:26;5.87;;;5.30;;
9288;SDS011;4683;50.864;12.086;2023-09-07T10:01:06;5.10;;;4.67;;
9288;SDS011;4683;50.864;12.086;2023-09-07T10:03:55;5.63;;;5.00;;
9288;SDS011;4683;50.864;12.086;2023-09-07T10:06:49;5.00;;;4.50;;
9288;SDS011;4683;50.864;12.086;2023-09-07T10:09:59;4.80;;;4.40;;
9288;SDS011;4683;50.864;12.086;2023-09-07T10:12:44;4.93;;;4.53;;
9288;SDS011;4683;50.864;12.086;2023-09-07T10:15:22;5.53;;;4.33;;
9288;SDS011;4683;50.864;12.086;2023-09-07T10:18:05;5.50;;;4.80;;
9288;SDS011;4683;50.864;12.086;2023-09-07T10:20:51;4.70;;;4.30;;
9288;SDS011;4683;50.864;12.086;2023-09-07T10:23:40;4.80;;;4.40;;
9288;SDS011;4683;50.864;12.086;2023-09-07T10:26:45;5.43;;;4.83;;
9288;SDS011;4683;50.864;12.086;2023-09-07T10:29:39;4.77;;;4.37;;
9288;SDS011;4683;50.864;12.086;2023-09-07T10:32:22;5.00;;;4.50;;
9288;SDS011;4683;50.864;12.086;2023-09-07T10:34:56;4.70;;;3.70;;
9288;SDS011;4683;50.864;12.086;2023-09-07T10:38:03;5.50;;;4.50;;
9288;SDS011;4683;50.864;12.086;2023-09-07T10:41:06;4.80;;;4.37;;
9288;SDS011;4683;50.864;12.086;2023-09-07T10:43:54;6.17;;;5.00;;
9288;SDS011;4683;50.864;12.086;2023-09-07T10:46:53;4.70;;;4.40;;
9288;SDS011;4683;50.864;12.086;2023-09-07T10:49:57;4.40;;;4.00;;
9288;SDS011;4683;50.864;12.086;2023-09-07T10:52:45;4.80;;;4.40;;
9288;SDS011;4683;50.864;12.086;2023-09-07T10:55:38;4.93;;;4.50;;
9288;SDS011;4683;50.864;12.086;2023-09-07T10:58:17;5.10;;;4.70;;
9288;SDS011;4683;50.864;12.086;2023-09-07T11:01:27;4.70;;;4.30;;
9288;SDS011;4683;50.864;12.086;2023-09-07T11:04:28;4.57;;;4.17;;
9288;SDS011;4683;50.864;12.086;2023-09-07T11:07:08;5.23;;;4.77;;
9288;SDS011;4683;50.864;12.086;2023-09-07T11:10:08;5.27;;;4.37;;
9288;SDS011;4683;50.864;12.086;2023-09-07T11:13:23;5.53;;;4.53;;
9288;SDS011;4683;50.864;12.086;2023-09-07T11:16:32;4.97;;;4.50;;
9288;SDS011;4683;50.864;12.086;2023-09-07T11:19:35;4.70;;;4.30;;
9288;SDS011;4683;50.864;12.086;2023-09-07T11:22:48;5.57;;;5.17;;
9288;SDS011;4683;50.864;12.086;2023-09-07T11:25:35;5.33;;;4.83;;
9288;SDS011;4683;50.864;12.086;2023-09-07T11:28:14;4.53;;;4.10;;
9288;SDS011;4683;50.864;12.086;2023-09-07T11:31:11;4.50;;;4.20;;
9288;SDS011;4683;50.864;12.086;2023-09-07T11:34:19;5.27;;;4.80;;
9288;SDS011;4683;50.864;12.086;2023-09-07T11:37:03;5.00;;;4.50;;
9288;SDS011;4683;50.864;12.086;2023-09-07T11:40:01;5.40;;;4.90;;
9288;SDS011;4683;50.864;12.086;2023-09-07T11:42:42;5.53;;;4.80;;
9288;SDS011;4683;50.864;12.086;2023-09-07T11:45:41;5.27;;;4.77;;
9288;SDS011;4683;50.864;12.086;2023-09-07T11:48:50;4.60;;;4.20;;
9288;SDS011;4683;50.864;12.086;2023-09-07T11:51:40;4.90;;;4.47;;
9288;SDS011;4683;50.864;12.086;2023-09-07T11:54:18;4.70;;;4.30;;
9288;SDS011;4683;50.864;12.086;2023-09-07T11:56:58;5.90;;;4.53;;
9288;SDS011;4683;50.864;12.086;2023-09-07T11:59:41;5.90;;;4.80;;
9288;SDS011;4683;50.864;12.086;2023-09-07T12:02:34;5.47;;;4.27;;
9288;SDS011;4683;50.864;12.086;2023-09-07T12:05:20;4.60;;;4.20;;
9288;SDS011;4683;50.864;12.086;2023-09-07T12:07:58;4.17;;;3.80;;
9288;SDS011;4683;50.864;12.086;2023-09-07T12:10:56;4.93;;;4.30;;
9288;SDS011;4683;50.864;12.086;2023-09-07T12:13:53;5.23;;;3.80;;
9288;SDS011;4683;50.864;12.086;2023-09-07T12:16:45;6.73;;;3.97;;
9288;SDS011;4683;50.864;12.086;2023-09-07T12:19:45;4.90;;;4.23;;
9288;SDS011;4683;50.864;12.086;2023-09-07T12:22:45;4.90;;;3.90;;
9288;SDS011;4683;50.864;12.086;2023-09-07T12:25:58;4.23;;;3.93;;
9288;SDS011;4683;50.864;12.086;2023-09-07T12:28:43;4.40;;;4.00;;
9288;SDS011;4683;50.864;12.086;2023-09-07T12:31:50;4.60;;;4.20;;
9288;SDS011;4683;50.864;12.086;2023-09-07T12:34:29;4.10;;;3.77;;
9288;SDS011;4683;50.864;12.086;2023-09-07T12:37:32;4.40;;;3.97;;
9288;SDS011;4683;50.864;12.086;2023-09-07T12:40:25;5.77;;;4.07;;
9288;SDS011;4683;50.864;12.086;2023-09-07T12:43:16;4.20;;;3.90;;
9288;SDS011;4683;50.864;12.086;2023-09-07T12:45:57;4.00;;;3.60;;
9288;SDS011;4683;50.864;12.086;2023-09-07T12:48:29;3.67;;;3.37;;
9288;SDS011;4683;50.864;12.086;2023-09-07T12:51:05;3.73;;;3.43;;
9288;SDS011;4683;50.864;12.086;2023-09-07T12:54:00;4.13;;;3.80;;
9288;SDS011;4683;50.864;12.086;2023-09-07T12:57:09;4.33;;;4.03;;
9288;SDS011;4683;50.864;12.086;2023-09-07T13:00:13;4.70;;;4.30;;
9288;SDS011;4683;50.864;12.086;2023-09-07T13:02:51;4.23;;;3.80;;
9288;SDS011;4683;50.864;12.086;2023-09-07T13:05:29;5.77;;;4.20;;
9288;SDS011;4683;50.864;12.086;2023-09-07T13:08:01;4.10;;;3.80;;
9288;SDS011;4683;50.864;12.086;2023-09-07T13:10:37;8.23;;;4.93;;
9288;SDS011;4683;50.864;12.086;2023-09-07T13:13:12;4.10;;;3.70;;
9288;SDS011;4683;50.864;12.086;2023-09-07T13:16:07;4.40;;;4.10;;
9288;SDS011;4683;50.864;12.086;2023-09-07T13:19:11;4.23;;;3.90;;
9288;SDS011;4683;50.864;12.086;2023-09-07T13:21:53;4.33;;;3.93;;
9288;SDS011;4683;50.864;12.086;2023-09-07T13:24:33;4.07;;;3.77;;
9288;SDS011;4683;50.864;12.086;2023-09-07T13:27:12;5.03;;;3.70;;
9288;SDS011;4683;50.864;12.086;2023-09-07T13:29:50;4.37;;;3.90;;
9288;SDS011;4683;50.864;12.086;2023-09-07T13:32:51;4.03;;;3.67;;
9288;SDS011;4683;50.864;12.086;2023-09-07T13:35:21;4.17;;;3.87;;
9288;SDS011;4683;50.864;12.086;2023-09-07T13:37:52;4.30;;;3.87;;
9288;SDS011;4683;50.864;12.086;2023-09-07T13:40:40;3.80;;;3.57;;
9288;SDS011;4683;50.864;12.086;2023-09-07T13:43:15;5.17;;;3.50;;
9288;SDS011;4683;50.864;12.086;2023-09-07T13:45:48;3.97;;;3.57;;
9288;SDS011;4683;50.864;12.086;2023-09-07T13:48:22;3.20;;;2.73;;
9288;SDS011;4683;50.864;12.086;2023-09-07T13:50:54;3.93;;;3.40;;
9288;SDS011;4683;50.864;12.086;2023-09-07T13:53:29;3.83;;;3.53;;
9288;SDS011;4683;50.864;12.086;2023-09-07T13:56:00;3.90;;;3.60;;
9288;SDS011;4683;50.864;12.086;2023-09-07T13:58:37;4.47;;;3.73;;
9288;SDS011;4683;50.864;12.086;2023-09-07T14:01:28;3.83;;;3.53;;
9288;SDS011;4683;50.864;12.086;2023-09-07T14:03:57;4.80;;;3.50;;
9288;SDS011;4683;50.864;12.086;2023-09-07T14:06:35;4.50;;;3.43;;
9288;SDS011;4683;50.864;12.086;2023-09-07T14:09:14;5.37;;;3.70;;
9288;SDS011;4683;50.864;12.086;2023-09-07T14:12:01;3.77;;;3.47;;
9288;SDS011;4683;50.864;12.086;2023-09-07T14:14:37;3.73;;;3.40;;
9288;SDS011;4683;50.864;12.086;2023-09-07T14:17:08;3.70;;;3.40;;
9288;SDS011;4683;50.864;12.086;2023-09-07T14:19:39;3.70;;;3.40;;
9288;SDS011;4683;50.864;12.086;2023-09-07T14:22:12;4.13;;;3.57;;
9288;SDS011;4683;50.864;12.086;2023-09-07T14:24:51;3.97;;;3.57;;
9288;SDS011;4683;50.864;12.086;2023-09-07T14:27:55;3.97;;;3.67;;
9288;SDS011;4683;50.864;12.086;2023-09-07T14:30:53;5.00;;;3.63;;
9288;SDS011;4683;50.864;12.086;2023-09-07T14:33:44;4.40;;;4.00;;
9288;SDS011;4683;50.864;12.086;2023-09-07T14:36:16;4.77;;;4.07;;
9288;SDS011;4683;50.864;12.086;2023-09-07T14:39:00;3.70;;;3.40;;
9288;SDS011;4683;50.864;12.086;2023-09-07T14:41:33;4.70;;;4.30;;
9288;SDS011;4683;50.864;12.086;2023-09-07T14:44:10;4.60;;;3.70;;
9288;SDS011;4683;50.864;12.086;2023-09-07T14:46:43;4.33;;;3.37;;
9288;SDS011;4683;50.864;12.086;2023-09-07T14:49:30;5.70;;;4.37;;
9288;SDS011;4683;50.864;12.086;2023-09-07T14:52:16;4.57;;;4.17;;
9288;SDS011;4683;50.864;12.086;2023-09-07T14:55:13;3.50;;;3.30;;
9288;SDS011;4683;50.864;12.086;2023-09-07T14:57:45;4.70;;;3.60;;
9288;SDS011;4683;50.864;12.086;2023-09-07T15:00:36;4.90;;;4.50;;
9288;SDS011;4683;50.864;12.086;2023-09-07T15:03:07;4.63;;;4.13;;
9288;SDS011;4683;50.864;12.086;2023-09-07T15:05:42;3.80;;;3.47;;
9288;SDS011;4683;50.864;12.086;2023-09-07T15:08:26;4.80;;;3.70;;
9288;SDS011;4683;50.864;12.086;2023-09-07T15:10:58;4.77;;;4.10;;
9288;SDS011;4683;50.864;12.086;2023-09-07T15:13:27;4.00;;;3.63;;
9288;SDS011;4683;50.864;12.086;2023-09-07T15:16:00;4.40;;;4.00;;
9288;SDS011;4683;50.864;12.086;2023-09-07T15:18:30;4.93;;;4.13;;
9288;SDS011;4683;50.864;12.086;2023-09-07T15:21:00;5.37;;;3.90;;
9288;SDS011;4683;50.864;12.086;2023-09-07T15:23:29;4.40;;;4.03;;
9288;SDS011;4683;50.864;12.086;2023-09-07T15:26:05;4.90;;;4.40;;
9288;SDS011;4683;50.864;12.086;2023-09-07T15:28:33;4.90;;;4.20;;
9288;SDS011;4683;50.864;12.086;2023-09-07T15:31:08;4.10;;;3.70;;
9288;SDS011;4683;50.864;12.086;2023-09-07T15:33:39;5.57;;;4.43;;
9288;SDS011;4683;50.864;12.086;2023-09-07T15:36:12;5.13;;;4.33;;
9288;SDS011;4683;50.864;12.086;2023-09-07T15:38:42;5.20;;;4.20;;
9288;SDS011;4683;50.864;12.086;2023-09-07T15:41:17;4.63;;;4.13;;
9288;SDS011;4683;50.864;12.086;2023-09-07T15:43:45;6.40;;;5.77;;
9288;SDS011;4683;50.864;12.086;2023-09-07T15:46:25;4.97;;;4.57;;
9288;SDS011;4683;50.864;12.086;2023-09-07T15:48:57;5.70;;;5.10;;
9288;SDS011;4683;50.864;12.086;2023-09-07T15:51:26;7.53;;;5.43;;
9288;SDS011;4683;50.864;12.086;2023-09-07T15:53:55;6.20;;;4.73;;
9288;SDS011;4683;50.864;12.086;2023-09-07T15:56:24;6.50;;;5.43;;
9288;SDS011;4683;50.864;12.086;2023-09-07T15:59:03;4.67;;;3.90;;
9288;SDS011;4683;50.864;12.086;2023-09-07T16:01:59;5.57;;;3.87;;
9288;SDS011;4683;50.864;12.086;2023-09-07T16:04:32;4.17;;;3.80;;
9288;SDS011;4683;50.864;12.086;2023-09-07T16:07:23;4.40;;;4.00;;
9288;SDS011;4683;50.864;12.086;2023-09-07T16:10:01;9.80;;;4.80;;
9288;SDS011;4683;50.864;12.086;2023-09-07T16:12:40;8.27;;;6.00;;
9288;SDS011;4683;50.864;12.086;2023-09-07T16:15:10;6.93;;;4.07;;